Impacts METAR Board
IDs:

KTPA - Tampa Intl Arpt, FL, US

Updated at: 2100 UTC 15 Jun 2019
Potential Impact None Slight Moderate High
Time 15/09Z 15/10Z 15/11Z 15/12Z 15/13Z 15/14Z 15/15Z 15/16Z 15/17Z 15/18Z 15/19Z 15/20Z 15/21Z
Temp76 75 75 77 79 83 84 86 86 80 88 87 88
Dewpt72 72 72 73 73 74 72 71 75 72 72 70 71
Altim30.07 30.08 30.10 30.11 30.12 30.13 30.13 30.13 30.13 30.11 30.08 30.06 30.03
VIS10 10 10 10 10 10 10 10 2.5 10 10 10 10
CIG-- -- -- -- 60 -- 250 30 35 280 280 280 300
CoverCLRCLRFEWSCTBKNSCTBKNBKNBKNBKNBKNBKNBKN
FltCatVFRVFRVFRVFRVFRVFRVFRMVFRIFRVFRVFRVFRVFR
WX----------------+RA--------
WDir30406050010080702202035010320
WSpd5 5 3 5 4 5 5 4 6 10 8 3 3
WGst-- -- -- -- -- -- -- -- -- -- -- -- --
Raw hourly METARs
KTPA 150853Z 03005KT 10SM CLR 24/22 A3007 RMK AO2 SLP181 T02440222 55008 $
KTPA 150953Z 04005KT 10SM CLR 24/22 A3008 RMK AO2 SLP185 T02390222 $
KTPA 151053Z 06003KT 10SM FEW100 FEW250 24/22 A3010 RMK AO2 SLP193 T02390222 $
KTPA 151153Z 05005KT 10SM FEW025 FEW100 SCT250 25/23 A3011 RMK AO2 SLP195 70004 T02500228 10250 20239 51014 $
KTPA 151253Z VRB04KT 10SM FEW022 BKN060 BKN250 26/23 A3012 RMK AO2 SLP199 TCU DSNT SW T02610228 $
KTPA 151353Z 10005KT 10SM FEW015 SCT100 SCT250 28/23 A3013 RMK AO2 SLP201 T02830233 $
KTPA 151453Z 08005KT 10SM SCT022 BKN250 29/22 A3013 RMK AO2 SLP202 T02890222 51007 $
KTPA 151553Z 07004KT 10SM FEW022 BKN030 BKN095 BKN250 30/22 A3013 RMK AO2 SLP203 CU BLDG ALQDS T03000217 $
KTPA 151653Z 22006KT 2 1/2SM R01L/2600VP6000FT +RA FEW025 BKN035 BKN060 BKN200 30/24 A3013 RMK AO2 RAB43 SLP201 T03000239 PNO $
KTPA 151753Z COR 02010KT 10SM FEW025 SCT033TCU SCT110 BKN280 27/22 A3011 RMK AO2 RAE17 SLP195 CB DSNT NW-NE TCU N-E AND S VCSH NW-N 60034 T02670222 10306 20250 58008 PNO $
KTPA 151853Z COR 35008KT 10SM FEW033TCU SCT110 BKN280 31/22 A3008 RMK AO2 LTG DSNT N SLP187 TCU S-W PNO $
KTPA 151953Z 01003KT 10SM FEW035TCU SCT110 BKN280 30/21 A3006 RMK AO2 LTG DSNT N SLP178 TCU N-S T03060211 $
KTPA 152053Z 32003KT 10SM FEW035TCU BKN300 31/22 A3003 RMK AO2 LTG DSNT NE AND E SLP169 CB DSNT NE TCU N-S 6//// T03110217 58026 $



Page loaded:  21:15 UTC  |   02:15 PM Pacific  |   03:15 PM Mountain  |   04:15 PM Central  |   05:15 PM Eastern

 

ADVISORIES

FORECASTS

FORECASTS

OBSERVATIONS

USER TOOLS

ABOUT US